Time;durP1;ratioP1;P1;durP2;ratioP2;P2;SDS_P1;SDS_P2;PMS_P1;PMS_P2;Temp;Humidity;BMP_temperature;BMP_pressure;BME280_temperature;BME280_humidity;BME280_pressure;Samples;Min_cycle;Max_cycle;Signal;HPM_P1;HPM_P2
2023/08/04 00:01:58;;;;;;;0.20;0.20;;;16.70;99.90;;;;;;4816812;29;20073;-77
2023/08/04 00:04:23;;;;;;;0.20;0.20;;;16.80;99.90;;;;;;4800784;29;20145;-77
2023/08/04 00:06:49;;;;;;;0.20;0.20;;;16.70;99.90;;;;;;4820216;29;20046;-77
2023/08/04 00:09:16;;;;;;;0.20;0.20;;;16.70;99.90;;;;;;4811205;29;20564;-77
2023/08/04 00:11:42;;;;;;;0.20;0.20;;;16.70;99.90;;;;;;4812765;29;20179;-76
2023/08/04 00:14:08;;;;;;;0.20;0.20;;;16.70;99.90;;;;;;4813046;29;20125;-76
2023/08/04 00:16:33;;;;;;;0.20;0.20;;;16.70;99.90;;;;;;4803252;29;20055;-76
2023/08/04 00:18:59;;;;;;;0.20;0.20;;;16.70;99.90;;;;;;4805561;29;20053;-77
2023/08/04 00:21:25;;;;;;;0.20;0.20;;;16.70;99.90;;;;;;4804554;29;20058;-77
2023/08/04 00:23:57;;;;;;;0.17;0.17;;;16.70;99.90;;;;;;4817032;29;20043;-76
2023/08/04 00:26:23;;;;;;;0.20;0.20;;;16.70;99.90;;;;;;4817050;29;20038;-76
2023/08/04 00:28:48;;;;;;;0.20;0.20;;;16.60;99.90;;;;;;4815510;29;20790;-76
2023/08/04 00:31:14;;;;;;;0.10;0.10;;;16.70;99.90;;;;;;4816315;29;20039;-76
2023/08/04 00:33:40;;;;;;;0.10;0.10;;;16.60;99.90;;;;;;4815938;29;20187;-76
2023/08/04 00:36:05;;;;;;;0.20;0.20;;;16.60;99.90;;;;;;4815656;29;20049;-76
2023/08/04 00:38:31;;;;;;;0.20;0.20;;;16.60;99.90;;;;;;4811269;29;20062;-76
2023/08/04 00:40:57;;;;;;;0.10;0.10;;;16.60;99.90;;;;;;4816526;29;20053;-77
2023/08/04 00:43:23;;;;;;;0.20;0.20;;;16.60;99.90;;;;;;4814348;29;20047;-76
2023/08/04 00:45:48;;;;;;;0.10;0.10;;;16.60;99.90;;;;;;4818101;29;20396;-76
2023/08/04 00:48:14;;;;;;;0.20;0.20;;;16.60;99.90;;;;;;4817739;29;20049;-77
2023/08/04 00:50:40;;;;;;;0.10;0.10;;;16.60;99.90;;;;;;4826366;29;20047;-77
2023/08/04 00:53:07;;;;;;;0.20;0.20;;;16.60;99.90;;;;;;4816949;29;20059;-77
2023/08/04 00:55:34;;;;;;;0.20;0.20;;;16.60;99.90;;;;;;4815404;29;20050;-76
2023/08/04 00:58:00;;;;;;;0.20;0.20;;;16.60;99.90;;;;;;4821597;29;20488;-76
2023/08/04 01:00:25;;;;;;;0.20;0.20;;;16.60;99.90;;;;;;4821421;29;20054;-76
2023/08/04 01:02:51;;;;;;;0.20;0.20;;;16.50;99.90;;;;;;4820476;29;20050;-77
2023/08/04 01:05:17;;;;;;;0.10;0.10;;;16.50;99.90;;;;;;4816715;29;20054;-76
2023/08/04 01:08:23;;;;;;;0.20;0.20;;;16.50;99.90;;;;;;4820428;29;20135;-77
2023/08/04 01:10:55;;;;;;;0.20;0.20;;;16.50;99.90;;;;;;4819675;29;20437;-77
2023/08/04 01:13:22;;;;;;;0.20;0.20;;;16.50;99.90;;;;;;4809775;29;20125;-76
2023/08/04 01:15:49;;;;;;;0.17;0.17;;;16.50;99.90;;;;;;4818523;29;20880;-77
2023/08/04 01:18:24;;;;;;;0.20;0.20;;;16.50;99.90;;;;;;4819765;29;20053;-76
2023/08/04 01:20:50;;;;;;;0.20;0.20;;;16.40;99.90;;;;;;4818309;29;20089;-77
2023/08/04 01:23:16;;;;;;;0.20;0.20;;;16.40;99.90;;;;;;4820496;29;20512;-77
2023/08/04 01:25:42;;;;;;;0.10;0.10;;;16.40;99.90;;;;;;4813361;29;20043;-77
2023/08/04 01:28:12;;;;;;;0.20;0.20;;;16.40;99.90;;;;;;4807931;29;20570;-77
2023/08/04 01:30:40;;;;;;;0.20;0.20;;;16.50;99.90;;;;;;4818330;29;20053;-76
2023/08/04 01:33:06;;;;;;;0.20;0.20;;;16.50;99.90;;;;;;4817660;29;20050;-77
2023/08/04 01:35:31;;;;;;;0.20;0.20;;;16.40;99.90;;;;;;4811029;29;20132;-77
2023/08/04 01:37:57;;;;;;;0.20;0.20;;;16.40;99.90;;;;;;4820233;29;20076;-76
2023/08/04 01:40:23;;;;;;;0.20;0.20;;;16.50;99.90;;;;;;4822556;29;20069;-77
2023/08/04 01:42:48;;;;;;;0.20;0.20;;;16.40;99.90;;;;;;4819244;29;20136;-77
2023/08/04 01:45:14;;;;;;;0.20;0.20;;;16.40;99.90;;;;;;4834628;29;20046;-77
2023/08/04 01:47:40;;;;;;;0.13;0.13;;;16.40;99.90;;;;;;4822791;29;20045;-77
2023/08/04 01:50:09;;;;;;;0.10;0.10;;;16.40;99.90;;;;;;4811653;29;20043;-77
2023/08/04 01:52:36;;;;;;;0.20;0.20;;;16.30;99.90;;;;;;4810901;29;20054;-76
2023/08/04 01:55:01;;;;;;;0.20;0.20;;;16.40;99.90;;;;;;4819748;29;20053;-77
2023/08/04 01:57:27;;;;;;;0.10;0.10;;;16.40;99.90;;;;;;4815211;29;20574;-77
2023/08/04 01:59:53;;;;;;;0.20;0.20;;;16.40;99.90;;;;;;4817825;29;20078;-76
2023/08/04 02:02:18;;;;;;;0.10;0.10;;;16.40;99.90;;;;;;4819845;29;20046;-76
2023/08/04 02:04:44;;;;;;;0.20;0.20;;;16.40;99.90;;;;;;4819169;29;20038;-77
2023/08/04 02:07:10;;;;;;;0.20;0.20;;;16.40;99.90;;;;;;4811750;29;20180;-77
2023/08/04 02:09:35;;;;;;;0.20;0.20;;;16.40;99.90;;;;;;4817294;29;20577;-76
2023/08/04 02:12:01;;;;;;;0.20;0.20;;;16.40;99.90;;;;;;4803773;29;20370;-77
2023/08/04 02:14:29;;;;;;;0.17;0.17;;;16.40;99.90;;;;;;4818537;29;20499;-77
2023/08/04 02:16:56;;;;;;;0.10;0.10;;;16.40;99.90;;;;;;4818614;29;20042;-77
2023/08/04 02:19:22;;;;;;;0.20;0.20;;;16.40;99.90;;;;;;4819783;29;20050;-76
2023/08/04 02:21:51;;;;;;;0.20;0.20;;;16.40;99.90;;;;;;4815783;29;20058;-76
2023/08/04 02:24:17;;;;;;;0.20;0.20;;;16.40;99.90;;;;;;4809618;29;20077;-77
2023/08/04 02:26:46;;;;;;;0.20;0.20;;;16.40;99.90;;;;;;4815644;29;20050;-77
2023/08/04 02:29:12;;;;;;;0.20;0.20;;;16.40;99.90;;;;;;4820764;29;20047;-77
2023/08/04 02:31:38;;;;;;;0.10;0.10;;;16.30;99.90;;;;;;4818034;29;20130;-77
2023/08/04 02:34:04;;;;;;;0.20;0.20;;;16.40;99.90;;;;;;4819231;29;20128;-77
2023/08/04 02:36:30;;;;;;;0.20;0.20;;;16.40;99.90;;;;;;4818293;29;20092;-77
2023/08/04 02:38:56;;;;;;;0.20;0.20;;;16.30;99.90;;;;;;4819576;29;20712;-77
2023/08/04 02:41:21;;;;;;;0.10;0.10;;;16.30;99.90;;;;;;4818629;29;20137;-77
2023/08/04 02:43:47;;;;;;;0.20;0.20;;;16.40;99.90;;;;;;4815615;29;20949;-76
2023/08/04 02:46:13;;;;;;;0.10;0.10;;;16.30;99.90;;;;;;4812612;29;20054;-77
2023/08/04 02:48:39;;;;;;;0.20;0.20;;;16.40;99.90;;;;;;4803217;29;20125;-76
2023/08/04 02:51:07;;;;;;;0.20;0.20;;;16.30;99.90;;;;;;4813648;29;21804;-77
2023/08/04 02:53:35;;;;;;;0.20;0.20;;;16.30;99.90;;;;;;4807067;29;20070;-77
2023/08/04 02:56:09;;;;;;;0.20;0.20;;;16.40;99.90;;;;;;4820206;29;20410;-77
2023/08/04 02:58:34;;;;;;;0.20;0.20;;;16.30;99.90;;;;;;4816912;29;20409;-77
2023/08/04 03:01:00;;;;;;;0.20;0.20;;;16.30;99.90;;;;;;4801923;29;20046;-76
2023/08/04 03:03:26;;;;;;;0.10;0.10;;;16.30;99.90;;;;;;4817096;29;20042;-77
2023/08/04 03:05:52;;;;;;;0.20;0.20;;;16.40;99.90;;;;;;4821610;29;20092;-77
2023/08/04 03:08:17;;;;;;;0.20;0.20;;;16.40;99.90;;;;;;4818647;29;20137;-77
2023/08/04 03:10:43;;;;;;;0.20;0.20;;;16.40;99.90;;;;;;4822412;29;20047;-76
2023/08/04 03:13:09;;;;;;;0.17;0.17;;;16.40;99.90;;;;;;4815080;29;20425;-77
2023/08/04 03:15:36;;;;;;;0.20;0.20;;;16.30;99.90;;;;;;4819203;29;20054;-78
2023/08/04 03:18:02;;;;;;;0.10;0.10;;;16.30;99.90;;;;;;4803393;29;20114;-76
2023/08/04 03:20:29;;;;;;;0.20;0.20;;;16.30;99.90;;;;;;4816721;29;20083;-77
2023/08/04 03:22:57;;;;;;;0.20;0.20;;;16.20;99.90;;;;;;4814410;29;20087;-77
2023/08/04 03:25:22;;;;;;;0.13;0.13;;;16.20;99.90;;;;;;4817896;29;20054;-77
2023/08/04 03:27:48;;;;;;;0.10;0.10;;;16.30;99.90;;;;;;4816088;29;20411;-77
2023/08/04 03:30:13;;;;;;;0.20;0.20;;;16.20;99.90;;;;;;4819766;29;20051;-77
2023/08/04 03:32:39;;;;;;;0.13;0.13;;;16.20;99.90;;;;;;4814634;29;20050;-76
2023/08/04 03:35:05;;;;;;;0.10;0.10;;;16.20;99.90;;;;;;4817505;29;20163;-77
2023/08/04 03:37:31;;;;;;;0.20;0.20;;;16.10;99.90;;;;;;4817488;29;20057;-76
2023/08/04 03:39:57;;;;;;;0.20;0.20;;;16.20;99.90;;;;;;4817645;29;20050;-76
2023/08/04 03:42:22;;;;;;;0.10;0.10;;;16.10;99.90;;;;;;4814795;29;20172;-76
2023/08/04 03:44:48;;;;;;;0.10;0.10;;;16.10;99.90;;;;;;4817745;29;20085;-77
2023/08/04 03:47:13;;;;;;;0.20;0.20;;;16.10;99.90;;;;;;4815770;29;20046;-77
2023/08/04 03:49:39;;;;;;;0.10;0.10;;;16.10;99.90;;;;;;4809374;29;20058;-77
2023/08/04 03:52:05;;;;;;;0.15;0.15;;;16.00;99.90;;;;;;4818446;29;20046;-77
2023/08/04 03:54:31;;;;;;;0.20;0.20;;;16.00;99.90;;;;;;4818639;29;20050;-77
2023/08/04 03:56:56;;;;;;;0.20;0.20;;;16.00;99.90;;;;;;4812985;29;20173;-77
2023/08/04 03:59:22;;;;;;;0.20;0.20;;;16.00;99.90;;;;;;4818895;29;20512;-76
2023/08/04 04:01:47;;;;;;;0.20;0.20;;;16.10;99.90;;;;;;4817758;29;20052;-77
2023/08/04 04:04:13;;;;;;;0.17;0.17;;;16.10;99.90;;;;;;4815239;29;20126;-77
2023/08/04 04:06:39;;;;;;;0.20;0.20;;;16.00;99.90;;;;;;4818172;29;20043;-77
2023/08/04 04:09:04;;;;;;;0.10;0.10;;;16.00;99.90;;;;;;4811654;29;20048;-77
2023/08/04 04:11:30;;;;;;;0.20;0.20;;;16.00;99.90;;;;;;4817022;29;20054;-76
2023/08/04 04:13:56;;;;;;;0.20;0.20;;;16.00;99.90;;;;;;4820292;29;20061;-77
2023/08/04 04:16:21;;;;;;;0.20;0.20;;;16.00;99.90;;;;;;4818537;29;20042;-77
2023/08/04 04:18:47;;;;;;;0.20;0.20;;;16.00;99.90;;;;;;4813098;29;20054;-77
2023/08/04 04:21:13;;;;;;;0.15;0.15;;;15.90;99.90;;;;;;4814861;29;20431;-76
2023/08/04 04:23:38;;;;;;;0.10;0.10;;;15.90;99.90;;;;;;4817139;29;20496;-76
2023/08/04 04:26:07;;;;;;;0.20;0.20;;;15.90;99.90;;;;;;4813820;29;20530;-76
2023/08/04 04:28:33;;;;;;;0.20;0.20;;;15.90;99.90;;;;;;4816053;29;20078;-76
2023/08/04 04:31:04;;;;;;;0.20;0.20;;;15.80;99.90;;;;;;4804941;29;20551;-76
2023/08/04 04:33:30;;;;;;;;;;;15.90;99.90;;;;;;4820457;29;20046;-76
2023/08/04 04:35:55;;;;;;;0.20;0.20;;;15.90;99.90;;;;;;4822777;29;19973;-77
2023/08/04 04:38:27;;;;;;;0.10;0.10;;;15.90;99.90;;;;;;4820975;29;20081;-76
2023/08/04 04:40:57;;;;;;;0.10;0.10;;;15.90;99.90;;;;;;4819799;29;20054;-76
2023/08/04 04:43:24;;;;;;;0.15;0.15;;;15.90;99.90;;;;;;4801939;29;20137;-77
2023/08/04 04:45:50;;;;;;;0.20;0.20;;;15.80;99.90;;;;;;4814013;29;20050;-76
2023/08/04 04:48:16;;;;;;;0.20;0.20;;;15.90;99.90;;;;;;4819943;29;20608;-76
2023/08/04 04:50:42;;;;;;;0.20;0.20;;;15.90;99.90;;;;;;4819775;29;20051;-76
2023/08/04 04:53:08;;;;;;;0.20;0.20;;;15.90;99.90;;;;;;4820570;29;20045;-76
2023/08/04 04:55:33;;;;;;;0.20;0.20;;;16.00;99.90;;;;;;4820475;29;20059;-76
2023/08/04 04:57:59;;;;;;;0.10;0.10;;;16.00;99.90;;;;;;4822205;29;20042;-76
2023/08/04 05:00:25;;;;;;;0.20;0.20;;;16.10;99.90;;;;;;4819445;29;20111;-76
2023/08/04 05:02:50;;;;;;;0.20;0.20;;;16.00;99.90;;;;;;4812736;29;20047;-76
2023/08/04 05:05:16;;;;;;;0.20;0.20;;;16.00;99.90;;;;;;4822277;29;20054;-76
2023/08/04 05:07:42;;;;;;;0.20;0.20;;;16.10;99.90;;;;;;4819394;29;20058;-76
2023/08/04 05:10:08;;;;;;;0.10;0.10;;;16.10;99.90;;;;;;4822361;29;20051;-76
2023/08/04 05:12:34;;;;;;;0.10;0.10;;;16.20;99.90;;;;;;4817916;29;20369;-76
2023/08/04 05:14:59;;;;;;;0.20;0.20;;;16.10;99.90;;;;;;4816867;29;20137;-76
2023/08/04 05:17:25;;;;;;;0.10;0.10;;;16.10;99.90;;;;;;4818665;29;20050;-77
2023/08/04 05:19:51;;;;;;;0.10;0.10;;;16.10;99.90;;;;;;4821519;29;20747;-76
2023/08/04 05:22:16;;;;;;;0.20;0.20;;;16.20;99.90;;;;;;4815630;29;20067;-76
2023/08/04 05:24:42;;;;;;;0.20;0.20;;;16.10;99.90;;;;;;4811573;29;20051;-76
2023/08/04 05:27:08;;;;;;;0.20;0.20;;;16.20;99.90;;;;;;4803096;29;20111;-76
2023/08/04 05:29:34;;;;;;;0.13;0.13;;;16.30;99.90;;;;;;4818721;29;20050;-76
2023/08/04 05:32:00;;;;;;;0.20;0.20;;;16.20;99.90;;;;;;4822728;29;20038;-76
2023/08/04 05:34:26;;;;;;;0.20;0.20;;;16.30;99.90;;;;;;4818557;29;20068;-76
2023/08/04 05:36:52;;;;;;;0.20;0.20;;;16.30;99.90;;;;;;4820908;29;20103;-76
2023/08/04 05:39:17;;;;;;;0.13;0.13;;;16.30;99.90;;;;;;4800174;29;20063;-76
2023/08/04 05:41:45;;;;;;;0.10;0.10;;;16.30;99.90;;;;;;4817362;29;20126;-77
2023/08/04 05:44:11;;;;;;;0.20;0.20;;;16.30;99.90;;;;;;4822754;29;20102;-76
2023/08/04 05:46:37;;;;;;;0.20;0.20;;;16.30;99.90;;;;;;4814613;29;20115;-77
2023/08/04 05:49:03;;;;;;;0.20;0.20;;;16.40;99.90;;;;;;4805071;29;20046;-76
2023/08/04 05:51:29;;;;;;;0.20;0.20;;;16.40;99.90;;;;;;4819074;29;20039;-77
2023/08/04 05:53:55;;;;;;;0.20;0.20;;;16.40;99.90;;;;;;4827827;29;20049;-77
2023/08/04 05:56:20;;;;;;;0.20;0.20;;;16.40;99.90;;;;;;4819219;29;20045;-77
2023/08/04 05:58:46;;;;;;;0.20;0.20;;;16.40;99.90;;;;;;4810010;29;20043;-77
2023/08/04 06:01:14;;;;;;;0.20;0.20;;;16.50;99.90;;;;;;4821349;29;20060;-76
2023/08/04 06:03:40;;;;;;;0.17;0.17;;;16.50;99.90;;;;;;4819828;29;20131;-76
2023/08/04 06:06:06;;;;;;;0.20;0.20;;;16.40;99.90;;;;;;4820416;29;20129;-76
2023/08/04 06:08:31;;;;;;;0.20;0.20;;;16.40;99.90;;;;;;4816666;29;20046;-77
2023/08/04 06:10:58;;;;;;;0.20;0.20;;;16.50;99.90;;;;;;4821166;29;20050;-77
2023/08/04 06:13:24;;;;;;;0.20;0.20;;;16.50;99.90;;;;;;4815243;29;20043;-76
2023/08/04 06:15:49;;;;;;;0.20;0.20;;;16.50;99.90;;;;;;4815476;29;20107;-77
2023/08/04 06:18:15;;;;;;;0.10;0.10;;;16.60;99.90;;;;;;4814435;29;20066;-76
2023/08/04 06:20:41;;;;;;;0.20;0.20;;;16.60;99.90;;;;;;4820407;29;20110;-76
2023/08/04 06:23:07;;;;;;;0.20;0.20;;;16.60;99.90;;;;;;4817163;29;20496;-77
2023/08/04 06:25:32;;;;;;;0.20;0.20;;;16.60;99.90;;;;;;4812562;29;20053;-84
2023/08/04 06:27:58;;;;;;;0.10;0.10;;;16.60;99.90;;;;;;4819730;29;20050;-76
2023/08/04 06:30:25;;;;;;;0.20;0.20;;;16.70;99.90;;;;;;4817093;29;20054;-77
2023/08/04 06:32:51;;;;;;;0.20;0.20;;;16.70;99.90;;;;;;4816586;29;20038;-77
2023/08/04 06:35:17;;;;;;;0.20;0.20;;;16.60;99.90;;;;;;4820501;29;20042;-77
2023/08/04 06:37:43;;;;;;;0.20;0.20;;;16.70;99.90;;;;;;4816555;29;20833;-78
2023/08/04 06:40:09;;;;;;;0.10;0.10;;;16.70;99.90;;;;;;4820648;29;20439;-77
2023/08/04 06:42:35;;;;;;;0.20;0.20;;;16.80;99.90;;;;;;4801525;29;20399;-77
2023/08/04 06:45:01;;;;;;;0.20;0.20;;;16.90;99.90;;;;;;4816316;29;20046;-76
2023/08/04 06:47:27;;;;;;;0.20;0.20;;;16.90;99.90;;;;;;4818433;29;20042;-77
2023/08/04 06:49:53;;;;;;;0.20;0.20;;;16.90;99.90;;;;;;4817638;29;20065;-76
2023/08/04 06:52:19;;;;;;;0.10;0.10;;;16.90;99.90;;;;;;4812576;29;20054;-76
2023/08/04 06:54:44;;;;;;;0.20;0.20;;;16.90;99.90;;;;;;4817762;29;20042;-76
2023/08/04 06:57:10;;;;;;;0.20;0.20;;;16.90;99.90;;;;;;4819676;29;20038;-77
2023/08/04 06:59:36;;;;;;;0.20;0.20;;;17.00;99.90;;;;;;4811138;29;20089;-76
2023/08/04 07:02:02;;;;;;;0.15;0.15;;;17.10;99.90;;;;;;4814072;29;20050;-77
2023/08/04 07:04:28;;;;;;;0.20;0.20;;;17.10;99.90;;;;;;4814867;29;20087;-77
2023/08/04 07:06:56;;;;;;;0.20;0.20;;;17.10;99.90;;;;;;4814973;29;20034;-77
2023/08/04 07:09:22;;;;;;;0.20;0.20;;;17.20;99.90;;;;;;4805239;29;20061;-84
2023/08/04 07:11:47;;;;;;;0.20;0.20;;;17.20;99.90;;;;;;4797509;29;20869;-85
2023/08/04 07:14:13;;;;;;;0.20;0.20;;;17.20;99.90;;;;;;4808902;29;20487;-84
2023/08/04 07:16:41;;;;;;;0.15;0.15;;;17.30;99.90;;;;;;4811184;29;20074;-85
2023/08/04 07:19:07;;;;;;;0.20;0.20;;;17.30;99.90;;;;;;4808683;29;20089;-84
2023/08/04 07:21:33;;;;;;;0.20;0.20;;;17.30;99.90;;;;;;4812248;29;20073;-86
2023/08/04 07:23:58;;;;;;;0.10;0.10;;;17.40;99.90;;;;;;4811778;29;20042;-86
2023/08/04 07:26:24;;;;;;;0.10;0.10;;;17.50;99.90;;;;;;4812755;29;20150;-85
2023/08/04 07:28:50;;;;;;;0.20;0.20;;;17.40;99.90;;;;;;4812886;29;20730;-85
2023/08/04 07:31:15;;;;;;;0.10;0.10;;;17.40;99.90;;;;;;4819292;29;20453;-84
2023/08/04 07:33:42;;;;;;;0.20;0.20;;;17.40;99.90;;;;;;4818199;29;20575;-86
2023/08/04 07:36:08;;;;;;;0.13;0.13;;;17.50;99.90;;;;;;4825413;29;20065;-85
2023/08/04 07:38:34;;;;;;;0.20;0.20;;;17.40;99.90;;;;;;4821082;29;20113;-85
2023/08/04 07:41:00;;;;;;;0.20;0.20;;;17.50;99.90;;;;;;4807452;29;20476;-84
2023/08/04 07:43:26;;;;;;;0.20;0.20;;;17.50;99.90;;;;;;4820059;29;20050;-86
2023/08/04 07:45:53;;;;;;;0.10;0.10;;;17.40;99.90;;;;;;4820294;29;20054;-85
2023/08/04 07:48:19;;;;;;;0.20;0.20;;;17.40;99.90;;;;;;4819965;29;20062;-86
2023/08/04 07:50:47;;;;;;;0.20;0.20;;;17.40;99.90;;;;;;4820428;29;20053;-86
2023/08/04 07:53:13;;;;;;;0.20;0.20;;;17.40;99.90;;;;;;4817918;29;20432;-85
2023/08/04 07:55:39;;;;;;;0.20;0.20;;;17.30;99.90;;;;;;4811750;29;20107;-84
2023/08/04 07:58:09;;;;;;;0.20;0.20;;;17.30;99.90;;;;;;4822850;29;20117;-83
2023/08/04 08:00:35;;;;;;;0.10;0.10;;;17.30;99.90;;;;;;4820456;29;20179;-84
2023/08/04 08:03:02;;;;;;;0.20;0.20;;;17.30;99.90;;;;;;4819303;29;20050;-83
2023/08/04 08:05:28;;;;;;;0.20;0.20;;;17.20;99.90;;;;;;4820268;29;20054;-86
2023/08/04 08:07:54;;;;;;;0.17;0.17;;;17.10;99.90;;;;;;4819421;29;20038;-84
2023/08/04 08:10:19;;;;;;;0.20;0.20;;;17.00;99.90;;;;;;4815491;29;20049;-85
2023/08/04 08:12:45;;;;;;;0.10;0.10;;;16.80;99.90;;;;;;4816887;29;20057;-86
2023/08/04 08:15:11;;;;;;;0.20;0.20;;;16.70;99.90;;;;;;4821843;29;20054;-86
2023/08/04 08:17:38;;;;;;;0.20;0.20;;;16.70;99.90;;;;;;4806994;29;20050;-85
2023/08/04 08:20:05;;;;;;;0.15;0.15;;;16.50;99.90;;;;;;4802775;29;20043;-86
2023/08/04 08:22:31;;;;;;;0.20;0.20;;;16.80;99.90;;;;;;4806644;29;20042;-86
2023/08/04 08:24:57;;;;;;;0.10;0.10;;;16.40;99.90;;;;;;4816698;29;20065;-86
2023/08/04 08:27:23;;;;;;;0.15;0.15;;;16.50;99.90;;;;;;4820978;29;20579;-86
2023/08/04 08:29:53;;;;;;;0.20;0.20;;;16.60;99.90;;;;;;4821146;29;20076;-86
2023/08/04 08:32:19;;;;;;;0.20;0.20;;;16.90;99.90;;;;;;4822525;29;20534;-86
2023/08/04 08:34:45;;;;;;;0.20;0.20;;;16.80;99.90;;;;;;4820199;29;20046;-85
2023/08/04 08:37:10;;;;;;;0.20;0.20;;;16.80;99.90;;;;;;4817904;29;20048;-85
2023/08/04 08:39:36;;;;;;;0.20;0.20;;;16.80;99.90;;;;;;4818928;29;20512;-87
2023/08/04 08:42:02;;;;;;;0.20;0.20;;;16.80;99.90;;;;;;4817462;29;20061;-85
2023/08/04 08:44:28;;;;;;;0.10;0.10;;;17.20;99.90;;;;;;4804424;29;20499;-87
2023/08/04 08:46:54;;;;;;;0.10;0.10;;;17.20;99.90;;;;;;4806464;29;20042;-87
2023/08/04 08:49:25;;;;;;;0.20;0.20;;;17.20;99.90;;;;;;4816339;29;20320;-86
2023/08/04 08:51:54;;;;;;;0.20;0.20;;;17.10;99.90;;;;;;4819044;29;20511;-89
2023/08/04 08:54:20;;;;;;;0.20;0.20;;;16.90;99.90;;;;;;4807259;29;20043;-88
2023/08/04 08:56:47;;;;;;;0.17;0.17;;;17.20;99.90;;;;;;4804706;29;20125;-87
2023/08/04 08:59:13;;;;;;;0.20;0.20;;;17.10;99.90;;;;;;4813538;29;20154;-87
2023/08/04 09:01:39;;;;;;;0.20;0.20;;;17.30;99.90;;;;;;4805806;29;20050;-87
2023/08/04 09:04:05;;;;;;;0.20;0.20;;;17.10;99.90;;;;;;4820535;29;20054;-88
2023/08/04 09:06:31;;;;;;;0.10;0.10;;;17.10;99.90;;;;;;4821456;29;20133;-85
2023/08/04 09:09:00;;;;;;;0.20;0.20;;;17.30;99.90;;;;;;4819826;29;20137;-85
2023/08/04 09:11:29;;;;;;;0.20;0.20;;;17.40;99.90;;;;;;4819990;29;20062;-85
2023/08/04 09:13:55;;;;;;;0.20;0.20;;;17.50;99.90;;;;;;4820546;29;20056;-86
2023/08/04 09:16:36;;;;;;;0.20;0.20;;;17.30;99.90;;;;;;4823430;29;20060;-86
2023/08/04 09:19:06;;;;;;;0.20;0.20;;;17.60;99.90;;;;;;4822491;29;20062;-84
2023/08/04 09:21:32;;;;;;;0.20;0.20;;;17.40;99.90;;;;;;4824419;29;20050;-82
2023/08/04 09:23:58;;;;;;;0.20;0.20;;;17.50;99.90;;;;;;4821941;29;20511;-84
2023/08/04 09:26:23;;;;;;;0.20;0.20;;;17.60;99.90;;;;;;4819740;29;20065;-83
2023/08/04 09:29:03;;;;;;;0.20;0.20;;;17.70;99.90;;;;;;4805491;29;20058;-83
2023/08/04 09:31:35;;;;;;;0.20;0.20;;;17.70;99.90;;;;;;4805234;29;20051;-84
2023/08/04 09:34:04;;;;;;;0.20;0.20;;;17.80;99.90;;;;;;4803479;29;20225;-85
2023/08/04 09:36:30;;;;;;;0.20;0.20;;;17.80;99.90;;;;;;4805993;29;20597;-85
2023/08/04 09:39:04;;;;;;;0.15;0.15;;;17.70;99.90;;;;;;4811077;29;20576;-84
2023/08/04 09:41:33;;;;;;;0.20;0.20;;;17.80;99.90;;;;;;4817218;29;20062;-83
2023/08/04 09:44:05;;;;;;;0.15;0.15;;;17.70;99.90;;;;;;4822519;29;20407;-83
2023/08/04 09:46:30;;;;;;;0.20;0.20;;;17.80;99.90;;;;;;4816951;29;20625;-83
2023/08/04 09:49:00;;;;;;;0.20;0.20;;;17.80;99.90;;;;;;4821426;29;20058;-84
2023/08/04 09:51:26;;;;;;;0.20;0.20;;;18.00;99.90;;;;;;4824377;29;20046;-83
2023/08/04 09:53:54;;;;;;;0.17;0.17;;;17.90;99.90;;;;;;4813513;29;20526;-84
2023/08/04 09:56:28;;;;;;;0.20;0.20;;;18.10;99.90;;;;;;4818481;29;20447;-84
2023/08/04 09:58:54;;;;;;;0.20;0.20;;;18.20;99.90;;;;;;4813059;29;20049;-84
2023/08/04 10:01:20;;;;;;;0.20;0.20;;;18.20;99.90;;;;;;4821235;29;20042;-86
2023/08/04 10:03:51;;;;;;;0.20;0.20;;;18.40;99.90;;;;;;4820868;29;20082;-86
2023/08/04 10:06:18;;;;;;;0.20;0.20;;;18.30;99.90;;;;;;4817217;29;20069;-87
2023/08/04 10:08:44;;;;;;;0.20;0.20;;;18.30;99.90;;;;;;4805923;29;20047;-88
2023/08/04 10:11:10;;;;;;;0.10;0.10;;;18.40;99.90;;;;;;4821266;29;20060;-88
2023/08/04 10:13:45;;;;;;;0.20;0.20;;;18.40;99.90;;;;;;4817868;29;20046;-88
2023/08/04 10:16:13;;;;;;;0.20;0.20;;;18.50;99.90;;;;;;4807049;29;20536;-86
2023/08/04 10:18:56;;;;;;;0.20;0.20;;;18.50;99.90;;;;;;4819399;29;20039;-86
2023/08/04 10:21:34;;;;;;;0.10;0.10;;;18.60;99.90;;;;;;4821264;29;20046;-88
2023/08/04 10:24:28;;;;;;;0.10;0.10;;;18.60;99.90;;;;;;4821448;29;20491;-89
2023/08/04 10:26:59;;;;;;;0.50;0.50;;;18.50;99.90;;;;;;4813098;29;20054;-89
2023/08/04 10:29:34;;;;;;;0.20;0.20;;;18.50;99.90;;;;;;4821519;29;20066;-89
2023/08/04 10:32:03;;;;;;;0.20;0.20;;;18.60;99.90;;;;;;4823696;29;20491;-86
2023/08/04 10:34:44;;;;;;;0.10;0.10;;;18.70;99.90;;;;;;4806831;29;20061;-87
2023/08/04 10:37:16;;;;;;;0.20;0.20;;;18.70;99.90;;;;;;4820561;29;20074;-84
2023/08/04 10:39:44;;;;;;;0.20;0.20;;;18.70;99.90;;;;;;4822357;29;20418;-85
2023/08/04 10:42:09;;;;;;;0.20;0.20;;;18.80;99.90;;;;;;4808540;29;20380;-85
2023/08/04 10:44:54;;;;;;;0.20;0.20;;;18.80;99.90;;;;;;4820561;29;20103;-84
2023/08/04 10:47:47;;;;;;;0.10;0.10;;;18.80;99.90;;;;;;4822108;29;20061;-87
2023/08/04 10:50:14;;;;;;;0.20;0.20;;;18.80;99.90;;;;;;4822513;29;20054;-86
2023/08/04 10:52:41;;;;;;;0.20;0.20;;;18.70;99.90;;;;;;4821450;29;20058;-87
2023/08/04 10:55:09;;;;;;;0.20;0.20;;;18.70;99.90;;;;;;4823350;29;20179;-85
2023/08/04 10:57:41;;;;;;;0.20;0.20;;;18.80;99.90;;;;;;4817288;29;20075;-84
2023/08/04 11:00:09;;;;;;;0.20;0.20;;;18.80;99.90;;;;;;4822504;29;20051;-81
2023/08/04 11:02:36;;;;;;;0.20;0.20;;;18.80;99.90;;;;;;4802860;29;20039;-82
2023/08/04 11:05:05;;;;;;;0.20;0.20;;;18.90;99.90;;;;;;4822632;29;20057;-82
2023/08/04 11:07:31;;;;;;;0.20;0.20;;;19.00;99.90;;;;;;4822606;29;20055;-82
2023/08/04 11:10:06;;;;;;;0.20;0.20;;;19.00;99.90;;;;;;4820751;29;20042;-81
2023/08/04 11:12:36;;;;;;;0.20;0.20;;;19.10;99.90;;;;;;4820250;29;20480;-80
2023/08/04 11:15:02;;;;;;;0.20;0.20;;;19.20;99.90;;;;;;4805350;29;20055;-81
2023/08/04 11:17:27;;;;;;;0.20;0.20;;;19.30;99.90;;;;;;4809958;29;20129;-81
2023/08/04 11:19:53;;;;;;;0.20;0.20;;;19.40;99.90;;;;;;4808269;29;20145;-81
2023/08/04 11:22:24;;;;;;;0.20;0.20;;;19.50;99.90;;;;;;4814053;29;20057;-81
2023/08/04 11:24:51;;;;;;;0.20;0.20;;;19.50;99.90;;;;;;4812859;29;20053;-81
2023/08/04 11:27:17;;;;;;;0.22;0.22;;;19.50;99.90;;;;;;4810001;29;20090;-80
2023/08/04 11:29:43;;;;;;;0.20;0.20;;;19.60;99.90;;;;;;4823956;29;20049;-81
2023/08/04 11:32:10;;;;;;;0.17;0.17;;;19.60;99.90;;;;;;4818696;29;20062;-82
2023/08/04 11:34:38;;;;;;;0.20;0.20;;;19.70;99.90;;;;;;4796618;29;20131;-81
2023/08/04 11:37:04;;;;;;;0.20;0.20;;;19.80;99.90;;;;;;4815779;29;20038;-81
2023/08/04 11:39:30;;;;;;;0.20;0.20;;;19.90;99.90;;;;;;4814097;29;20065;-81
2023/08/04 11:41:55;;;;;;;0.20;0.20;;;20.00;99.90;;;;;;4792642;29;20050;-80
2023/08/04 11:44:22;;;;;;;0.13;0.13;;;20.00;99.90;;;;;;4808978;29;20042;-82
2023/08/04 11:46:48;;;;;;;0.20;0.20;;;20.00;99.90;;;;;;4808771;29;20050;-80
2023/08/04 11:49:15;;;;;;;0.20;0.20;;;19.90;99.90;;;;;;4813672;29;20102;-81
2023/08/04 11:51:44;;;;;;;0.20;0.20;;;19.90;99.90;;;;;;4811647;29;20129;-81
2023/08/04 11:54:18;;;;;;;0.20;0.20;;;19.80;99.90;;;;;;4818387;29;20388;-80
2023/08/04 11:56:43;;;;;;;0.20;0.20;;;19.70;99.90;;;;;;4805232;29;20058;-81
2023/08/04 11:59:10;;;;;;;0.20;0.20;;;19.80;99.90;;;;;;4820460;29;20042;-81
2023/08/04 12:01:36;;;;;;;0.20;0.20;;;19.80;99.90;;;;;;4819800;29;20121;-80
2023/08/04 12:04:03;;;;;;;0.20;0.20;;;19.90;99.90;;;;;;4818746;29;20199;-81
2023/08/04 12:06:29;;;;;;;0.20;0.20;;;19.90;99.90;;;;;;4813390;29;20046;-81
2023/08/04 12:09:04;;;;;;;0.20;0.20;;;20.10;99.90;;;;;;4813034;29;20073;-80
2023/08/04 12:11:30;;;;;;;0.20;0.20;;;20.30;99.90;;;;;;4804097;29;20065;-82
2023/08/04 12:14:09;;;;;;;0.20;0.20;;;20.40;99.90;;;;;;4811176;29;20034;-80
2023/08/04 12:16:55;;;;;;;0.20;0.20;;;20.50;99.90;;;;;;4803904;29;20368;-82
2023/08/04 12:19:40;;;;;;;0.20;0.20;;;20.60;99.90;;;;;;4804499;29;20094;-81
2023/08/04 12:22:05;;;;;;;0.20;0.20;;;20.60;99.90;;;;;;4801094;29;20465;-80
2023/08/04 12:24:32;;;;;;;0.20;0.20;;;20.50;99.90;;;;;;4802463;29;20054;-79
2023/08/04 12:26:57;;;;;;;0.10;0.10;;;20.40;99.90;;;;;;4801688;29;20090;-80
2023/08/04 12:29:23;;;;;;;0.20;0.20;;;20.40;99.90;;;;;;4801652;29;20050;-81
2023/08/04 12:31:50;;;;;;;0.20;0.20;;;20.40;99.90;;;;;;4817594;29;20508;-81
2023/08/04 12:34:16;;;;;;;0.20;0.20;;;20.50;99.90;;;;;;4803984;29;20079;-82
2023/08/04 12:36:42;;;;;;;0.15;0.15;;;20.50;99.90;;;;;;4820012;29;20051;-81
2023/08/04 12:39:12;;;;;;;0.10;0.10;;;20.60;99.90;;;;;;4802910;29;20055;-81
2023/08/04 12:41:38;;;;;;;0.20;0.20;;;20.70;99.90;;;;;;4820491;29;20051;-80
2023/08/04 12:44:04;;;;;;;0.20;0.20;;;20.70;99.90;;;;;;4803383;29;20057;-84
2023/08/04 12:46:29;;;;;;;0.20;0.20;;;20.70;99.90;;;;;;4819656;29;20047;-81
2023/08/04 12:48:56;;;;;;;0.20;0.20;;;20.70;99.90;;;;;;4803048;29;20046;-80